sensor_id;sensor_type;location;lat;lon;timestamp;temperature;humidity
38854;DHT22;24606;51.992;4.198;2023-03-09T00:00:10;17.10;66.20
38854;DHT22;24606;51.992;4.198;2023-03-09T00:05:12;17.10;66.20
38854;DHT22;24606;51.992;4.198;2023-03-09T00:10:16;17.00;66.00
38854;DHT22;24606;51.992;4.198;2023-03-09T00:15:20;17.00;66.10
38854;DHT22;24606;51.992;4.198;2023-03-09T00:20:22;17.00;65.80
38854;DHT22;24606;51.992;4.198;2023-03-09T00:25:24;16.90;66.00
38854;DHT22;24606;51.992;4.198;2023-03-09T00:30:28;17.00;65.80
38854;DHT22;24606;51.992;4.198;2023-03-09T00:35:30;16.90;66.20
38854;DHT22;24606;51.992;4.198;2023-03-09T00:40:32;16.90;66.00
38854;DHT22;24606;51.992;4.198;2023-03-09T00:45:35;17.00;65.60
38854;DHT22;24606;51.992;4.198;2023-03-09T00:50:37;17.00;65.50
38854;DHT22;24606;51.992;4.198;2023-03-09T00:55:38;16.80;66.00
38854;DHT22;24606;51.992;4.198;2023-03-09T01:00:42;16.90;65.50
38854;DHT22;24606;51.992;4.198;2023-03-09T01:05:43;16.80;66.00
38854;DHT22;24606;51.992;4.198;2023-03-09T01:10:45;16.90;65.50
38854;DHT22;24606;51.992;4.198;2023-03-09T01:15:48;16.80;65.50
38854;DHT22;24606;51.992;4.198;2023-03-09T01:20:50;16.80;65.50
38854;DHT22;24606;51.992;4.198;2023-03-09T01:25:52;16.70;65.50
38854;DHT22;24606;51.992;4.198;2023-03-09T01:30:56;16.80;65.50
38854;DHT22;24606;51.992;4.198;2023-03-09T01:35:57;16.70;65.20
38854;DHT22;24606;51.992;4.198;2023-03-09T01:41:00;16.80;65.20
38854;DHT22;24606;51.992;4.198;2023-03-09T01:46:33;16.70;65.60
38854;DHT22;24606;51.992;4.198;2023-03-09T01:51:37;16.70;65.20
38854;DHT22;24606;51.992;4.198;2023-03-09T01:56:41;16.60;65.30
38854;DHT22;24606;51.992;4.198;2023-03-09T02:01:47;16.70;64.70
38854;DHT22;24606;51.992;4.198;2023-03-09T02:06:48;16.60;65.00
38854;DHT22;24606;51.992;4.198;2023-03-09T02:11:51;16.70;64.70
38854;DHT22;24606;51.992;4.198;2023-03-09T02:16:54;16.70;64.80
38854;DHT22;24606;51.992;4.198;2023-03-09T02:21:56;16.60;64.60
38854;DHT22;24606;51.992;4.198;2023-03-09T02:27:00;16.60;64.60
38854;DHT22;24606;51.992;4.198;2023-03-09T02:32:04;16.70;64.40
38854;DHT22;24606;51.992;4.198;2023-03-09T02:37:22;16.60;64.50
38854;DHT22;24606;51.992;4.198;2023-03-09T02:42:27;16.50;64.60
38854;DHT22;24606;51.992;4.198;2023-03-09T02:47:33;16.50;64.70
38854;DHT22;24606;51.992;4.198;2023-03-09T02:52:36;16.50;64.50
38854;DHT22;24606;51.992;4.198;2023-03-09T02:57:39;16.60;64.40
38854;DHT22;24606;51.992;4.198;2023-03-09T03:02:42;16.50;64.30
38854;DHT22;24606;51.992;4.198;2023-03-09T03:07:44;16.50;64.50
38854;DHT22;24606;51.992;4.198;2023-03-09T03:12:46;16.50;64.40
38854;DHT22;24606;51.992;4.198;2023-03-09T03:17:50;16.50;64.60
38854;DHT22;24606;51.992;4.198;2023-03-09T03:22:52;16.50;63.80
38854;DHT22;24606;51.992;4.198;2023-03-09T03:27:53;16.50;64.00
38854;DHT22;24606;51.992;4.198;2023-03-09T03:32:57;16.50;64.20
38854;DHT22;24606;51.992;4.198;2023-03-09T03:37:59;16.50;63.90
38854;DHT22;24606;51.992;4.198;2023-03-09T03:43:01;16.40;64.10
38854;DHT22;24606;51.992;4.198;2023-03-09T03:48:05;16.40;64.00
38854;DHT22;24606;51.992;4.198;2023-03-09T03:53:06;16.40;64.30
38854;DHT22;24606;51.992;4.198;2023-03-09T03:58:08;16.50;63.80
38854;DHT22;24606;51.992;4.198;2023-03-09T04:03:12;16.40;63.80
38854;DHT22;24606;51.992;4.198;2023-03-09T04:08:14;16.40;64.10
38854;DHT22;24606;51.992;4.198;2023-03-09T04:13:16;16.40;63.90
38854;DHT22;24606;51.992;4.198;2023-03-09T04:18:19;16.50;63.50
38854;DHT22;24606;51.992;4.198;2023-03-09T04:23:21;16.30;63.80
38854;DHT22;24606;51.992;4.198;2023-03-09T04:28:23;16.40;63.40
38854;DHT22;24606;51.992;4.198;2023-03-09T04:33:27;16.30;63.90
38854;DHT22;24606;51.992;4.198;2023-03-09T04:38:28;16.40;63.00
38854;DHT22;24606;51.992;4.198;2023-03-09T04:43:31;16.70;62.10
38854;DHT22;24606;51.992;4.198;2023-03-09T04:48:34;17.00;61.20
38854;DHT22;24606;51.992;4.198;2023-03-09T04:53:35;17.00;60.90
38854;DHT22;24606;51.992;4.198;2023-03-09T04:58:37;17.20;60.70
38854;DHT22;24606;51.992;4.198;2023-03-09T05:03:40;17.20;60.40
38854;DHT22;24606;51.992;4.198;2023-03-09T05:08:42;17.30;60.30
38854;DHT22;24606;51.992;4.198;2023-03-09T05:13:44;17.40;60.10
38854;DHT22;24606;51.992;4.198;2023-03-09T05:18:49;17.40;60.00
38854;DHT22;24606;51.992;4.198;2023-03-09T05:23:51;17.50;60.00
38854;DHT22;24606;51.992;4.198;2023-03-09T05:28:53;17.50;60.00
38854;DHT22;24606;51.992;4.198;2023-03-09T05:33:56;17.50;60.10
38854;DHT22;24606;51.992;4.198;2023-03-09T05:38:58;17.50;60.00
38854;DHT22;24606;51.992;4.198;2023-03-09T05:44:00;17.50;60.10
38854;DHT22;24606;51.992;4.198;2023-03-09T05:49:03;17.50;60.10
38854;DHT22;24606;51.992;4.198;2023-03-09T05:54:05;17.50;60.30
38854;DHT22;24606;51.992;4.198;2023-03-09T05:59:07;17.50;60.20
38854;DHT22;24606;51.992;4.198;2023-03-09T06:04:10;17.50;60.30
38854;DHT22;24606;51.992;4.198;2023-03-09T06:09:12;17.50;60.30
38854;DHT22;24606;51.992;4.198;2023-03-09T06:14:14;17.50;60.00
38854;DHT22;24606;51.992;4.198;2023-03-09T06:19:18;17.50;60.00
38854;DHT22;24606;51.992;4.198;2023-03-09T06:24:19;17.50;59.80
38854;DHT22;24606;51.992;4.198;2023-03-09T06:29:21;17.60;59.80
38854;DHT22;24606;51.992;4.198;2023-03-09T06:34:28;17.60;59.90
38854;DHT22;24606;51.992;4.198;2023-03-09T06:39:30;17.50;60.00
38854;DHT22;24606;51.992;4.198;2023-03-09T06:44:32;17.50;60.10
38854;DHT22;24606;51.992;4.198;2023-03-09T06:49:35;17.30;60.60
38854;DHT22;24606;51.992;4.198;2023-03-09T06:54:37;17.10;61.90
38854;DHT22;24606;51.992;4.198;2023-03-09T06:59:40;16.80;63.70
38854;DHT22;24606;51.992;4.198;2023-03-09T07:15:08;17.20;61.60
38854;DHT22;24606;51.992;4.198;2023-03-09T07:20:10;16.90;63.40
38854;DHT22;24606;51.992;4.198;2023-03-09T07:25:12;16.90;64.30
38854;DHT22;24606;51.992;4.198;2023-03-09T07:30:16;16.80;65.20
38854;DHT22;24606;51.992;4.198;2023-03-09T07:35:19;16.70;65.70
38854;DHT22;24606;51.992;4.198;2023-03-09T07:40:20;16.50;67.30
38854;DHT22;24606;51.992;4.198;2023-03-09T07:45:24;16.20;70.80
38854;DHT22;24606;51.992;4.198;2023-03-09T07:50:26;16.30;72.80
38854;DHT22;24606;51.992;4.198;2023-03-09T07:55:28;16.30;72.80
38854;DHT22;24606;51.992;4.198;2023-03-09T08:00:33;16.30;73.80
38854;DHT22;24606;51.992;4.198;2023-03-09T08:05:35;16.30;74.10
38854;DHT22;24606;51.992;4.198;2023-03-09T08:10:37;16.30;76.20
38854;DHT22;24606;51.992;4.198;2023-03-09T08:15:40;16.20;75.90
38854;DHT22;24606;51.992;4.198;2023-03-09T08:20:42;16.30;75.20
38854;DHT22;24606;51.992;4.198;2023-03-09T08:25:44;16.10;79.60
38854;DHT22;24606;51.992;4.198;2023-03-09T08:30:48;16.20;78.10
38854;DHT22;24606;51.992;4.198;2023-03-09T08:35:50;16.20;77.60
38854;DHT22;24606;51.992;4.198;2023-03-09T08:40:52;16.20;78.80
38854;DHT22;24606;51.992;4.198;2023-03-09T08:45:55;16.10;78.80
38854;DHT22;24606;51.992;4.198;2023-03-09T08:50:59;16.20;79.20
38854;DHT22;24606;51.992;4.198;2023-03-09T08:56:03;16.20;80.50
38854;DHT22;24606;51.992;4.198;2023-03-09T09:01:07;16.20;78.90
38854;DHT22;24606;51.992;4.198;2023-03-09T09:06:12;16.20;79.60
38854;DHT22;24606;51.992;4.198;2023-03-09T09:11:16;16.10;79.40
38854;DHT22;24606;51.992;4.198;2023-03-09T09:16:19;16.10;80.50
38854;DHT22;24606;51.992;4.198;2023-03-09T09:21:21;16.10;79.90
38854;DHT22;24606;51.992;4.198;2023-03-09T09:26:23;16.10;82.40
38854;DHT22;24606;51.992;4.198;2023-03-09T09:31:27;16.10;79.40
38854;DHT22;24606;51.992;4.198;2023-03-09T09:36:30;16.00;80.10
38854;DHT22;24606;51.992;4.198;2023-03-09T09:41:40;16.00;81.80
38854;DHT22;24606;51.992;4.198;2023-03-09T09:46:45;16.00;80.70
38854;DHT22;24606;51.992;4.198;2023-03-09T09:52:05;16.00;82.40
38854;DHT22;24606;51.992;4.198;2023-03-09T09:57:16;16.00;82.00
38854;DHT22;24606;51.992;4.198;2023-03-09T10:02:37;16.00;81.90
38854;DHT22;24606;51.992;4.198;2023-03-09T10:07:41;16.00;81.60
38854;DHT22;24606;51.992;4.198;2023-03-09T10:12:44;16.10;80.40
38854;DHT22;24606;51.992;4.198;2023-03-09T10:17:49;15.90;85.70
38854;DHT22;24606;51.992;4.198;2023-03-09T10:22:56;15.90;81.70
38854;DHT22;24606;51.992;4.198;2023-03-09T10:28:01;15.90;84.10
38854;DHT22;24606;51.992;4.198;2023-03-09T10:33:09;15.90;83.90
38854;DHT22;24606;51.992;4.198;2023-03-09T10:38:14;16.00;81.80
38854;DHT22;24606;51.992;4.198;2023-03-09T10:43:20;15.90;83.00
38854;DHT22;24606;51.992;4.198;2023-03-09T10:48:26;15.90;84.40
38854;DHT22;24606;51.992;4.198;2023-03-09T10:53:35;16.00;83.10
38854;DHT22;24606;51.992;4.198;2023-03-09T10:58:37;16.10;83.00
38854;DHT22;24606;51.992;4.198;2023-03-09T11:03:42;16.00;78.80
38854;DHT22;24606;51.992;4.198;2023-03-09T11:08:54;16.00;80.40
38854;DHT22;24606;51.992;4.198;2023-03-09T11:13:56;16.10;82.70
38854;DHT22;24606;51.992;4.198;2023-03-09T11:19:10;16.00;84.40
38854;DHT22;24606;51.992;4.198;2023-03-09T11:24:13;16.00;81.30
38854;DHT22;24606;51.992;4.198;2023-03-09T11:29:21;16.00;86.60
38854;DHT22;24606;51.992;4.198;2023-03-09T11:34:30;16.10;87.90
38854;DHT22;24606;51.992;4.198;2023-03-09T11:39:35;16.10;79.20
38854;DHT22;24606;51.992;4.198;2023-03-09T11:44:42;16.20;85.60
38854;DHT22;24606;51.992;4.198;2023-03-09T11:49:47;16.20;81.10
38854;DHT22;24606;51.992;4.198;2023-03-09T11:54:52;16.10;81.00
38854;DHT22;24606;51.992;4.198;2023-03-09T12:00:00;16.20;81.70
38854;DHT22;24606;51.992;4.198;2023-03-09T12:05:11;16.10;85.30
38854;DHT22;24606;51.992;4.198;2023-03-09T12:10:15;16.20;80.30
38854;DHT22;24606;51.992;4.198;2023-03-09T12:15:24;16.00;86.80
38854;DHT22;24606;51.992;4.198;2023-03-09T12:20:32;16.10;84.40
38854;DHT22;24606;51.992;4.198;2023-03-09T12:25:35;16.00;85.00
38854;DHT22;24606;51.992;4.198;2023-03-09T12:30:49;16.10;84.00
38854;DHT22;24606;51.992;4.198;2023-03-09T12:36:02;16.10;79.30
38854;DHT22;24606;51.992;4.198;2023-03-09T12:41:24;16.20;84.20
38854;DHT22;24606;51.992;4.198;2023-03-09T12:46:49;16.10;78.90
38854;DHT22;24606;51.992;4.198;2023-03-09T12:52:13;16.00;85.30
38854;DHT22;24606;51.992;4.198;2023-03-09T12:57:18;16.00;84.20
38854;DHT22;24606;51.992;4.198;2023-03-09T13:02:30;16.10;83.40
38854;DHT22;24606;51.992;4.198;2023-03-09T13:07:34;16.00;86.20
38854;DHT22;24606;51.992;4.198;2023-03-09T13:12:36;16.00;87.40
38854;DHT22;24606;51.992;4.198;2023-03-09T13:17:39;16.30;85.00
38854;DHT22;24606;51.992;4.198;2023-03-09T13:22:42;16.10;85.30
38854;DHT22;24606;51.992;4.198;2023-03-09T13:27:45;16.00;90.10
38854;DHT22;24606;51.992;4.198;2023-03-09T13:32:56;16.20;83.60
38854;DHT22;24606;51.992;4.198;2023-03-09T13:38:03;16.50;77.00
38854;DHT22;24606;51.992;4.198;2023-03-09T13:43:14;16.60;76.30
38854;DHT22;24606;51.992;4.198;2023-03-09T13:48:16;17.00;70.00
38854;DHT22;24606;51.992;4.198;2023-03-09T13:53:23;17.40;66.40
38854;DHT22;24606;51.992;4.198;2023-03-09T13:58:26;17.60;65.20
38854;DHT22;24606;51.992;4.198;2023-03-09T14:03:31;17.70;64.70
38854;DHT22;24606;51.992;4.198;2023-03-09T14:08:40;17.20;71.50
38854;DHT22;24606;51.992;4.198;2023-03-09T14:13:48;17.70;66.20
38854;DHT22;24606;51.992;4.198;2023-03-09T14:18:52;17.90;64.60
38854;DHT22;24606;51.992;4.198;2023-03-09T14:24:09;17.90;63.80
38854;DHT22;24606;51.992;4.198;2023-03-09T14:29:21;18.00;63.70
38854;DHT22;24606;51.992;4.198;2023-03-09T14:34:26;18.00;63.70
38854;DHT22;24606;51.992;4.198;2023-03-09T14:39:31;18.00;63.40
38854;DHT22;24606;51.992;4.198;2023-03-09T14:44:35;18.00;63.70
38854;DHT22;24606;51.992;4.198;2023-03-09T14:49:40;17.90;63.60
38854;DHT22;24606;51.992;4.198;2023-03-09T14:54:43;17.90;63.70
38854;DHT22;24606;51.992;4.198;2023-03-09T14:59:45;17.90;63.50
38854;DHT22;24606;51.992;4.198;2023-03-09T15:04:48;17.80;64.90
38854;DHT22;24606;51.992;4.198;2023-03-09T15:09:51;17.50;69.30
38854;DHT22;24606;51.992;4.198;2023-03-09T15:14:53;17.50;68.30
38854;DHT22;24606;51.992;4.198;2023-03-09T15:19:55;17.70;65.90
38854;DHT22;24606;51.992;4.198;2023-03-09T15:24:58;17.80;64.50
38854;DHT22;24606;51.992;4.198;2023-03-09T15:30:01;17.80;65.00
38854;DHT22;24606;51.992;4.198;2023-03-09T15:35:04;17.50;67.60
38854;DHT22;24606;51.992;4.198;2023-03-09T15:40:08;17.30;72.10
38854;DHT22;24606;51.992;4.198;2023-03-09T15:45:12;17.50;69.20
38854;DHT22;24606;51.992;4.198;2023-03-09T15:50:14;17.40;68.80
38854;DHT22;24606;51.992;4.198;2023-03-09T15:55:18;17.70;65.60
38854;DHT22;24606;51.992;4.198;2023-03-09T16:00:21;17.80;65.20
38854;DHT22;24606;51.992;4.198;2023-03-09T16:05:23;17.50;66.50
38854;DHT22;24606;51.992;4.198;2023-03-09T16:10:26;17.60;67.20
38854;DHT22;24606;51.992;4.198;2023-03-09T16:15:28;17.50;67.10
38854;DHT22;24606;51.992;4.198;2023-03-09T16:20:30;17.50;67.70
38854;DHT22;24606;51.992;4.198;2023-03-09T16:25:34;17.60;66.20
38854;DHT22;24606;51.992;4.198;2023-03-09T16:30:36;17.30;69.60
38854;DHT22;24606;51.992;4.198;2023-03-09T16:35:38;17.50;66.20
38854;DHT22;24606;51.992;4.198;2023-03-09T16:40:41;17.80;64.90
38854;DHT22;24606;51.992;4.198;2023-03-09T16:45:51;17.60;65.40
38854;DHT22;24606;51.992;4.198;2023-03-09T16:50:54;17.60;65.80
38854;DHT22;24606;51.992;4.198;2023-03-09T16:55:59;17.60;65.50
38854;DHT22;24606;51.992;4.198;2023-03-09T17:01:02;17.70;65.10
38854;DHT22;24606;51.992;4.198;2023-03-09T17:06:11;17.60;65.70
38854;DHT22;24606;51.992;4.198;2023-03-09T17:11:16;17.30;67.30
38854;DHT22;24606;51.992;4.198;2023-03-09T17:16:18;17.10;70.20
38854;DHT22;24606;51.992;4.198;2023-03-09T17:21:21;17.40;67.00
38854;DHT22;24606;51.992;4.198;2023-03-09T17:26:24;17.60;66.60
38854;DHT22;24606;51.992;4.198;2023-03-09T17:31:26;17.50;62.70
38854;DHT22;24606;51.992;4.198;2023-03-09T17:36:28;17.60;67.70
38854;DHT22;24606;51.992;4.198;2023-03-09T17:41:31;17.60;67.80
38854;DHT22;24606;51.992;4.198;2023-03-09T17:46:33;17.50;68.20
38854;DHT22;24606;51.992;4.198;2023-03-09T17:51:35;17.60;68.40
38854;DHT22;24606;51.992;4.198;2023-03-09T17:56:38;17.70;68.00
38854;DHT22;24606;51.992;4.198;2023-03-09T18:01:40;17.70;67.60
38854;DHT22;24606;51.992;4.198;2023-03-09T18:06:43;17.30;71.30
38854;DHT22;24606;51.992;4.198;2023-03-09T18:11:46;17.10;72.00
38854;DHT22;24606;51.992;4.198;2023-03-09T18:16:48;16.90;73.50
38854;DHT22;24606;51.992;4.198;2023-03-09T18:21:50;16.60;76.30
38854;DHT22;24606;51.992;4.198;2023-03-09T18:26:53;16.80;75.70
38854;DHT22;24606;51.992;4.198;2023-03-09T18:31:55;16.60;77.40
38854;DHT22;24606;51.992;4.198;2023-03-09T18:36:57;16.70;76.60
38854;DHT22;24606;51.992;4.198;2023-03-09T18:42:00;16.80;75.60
38854;DHT22;24606;51.992;4.198;2023-03-09T18:47:02;16.90;74.80
38854;DHT22;24606;51.992;4.198;2023-03-09T18:52:04;17.00;73.80
38854;DHT22;24606;51.992;4.198;2023-03-09T18:57:07;16.90;75.40
38854;DHT22;24606;51.992;4.198;2023-03-09T19:02:11;17.50;75.20
38854;DHT22;24606;51.992;4.198;2023-03-09T19:07:13;17.40;71.30
38854;DHT22;24606;51.992;4.198;2023-03-09T19:12:17;17.70;69.30
38854;DHT22;24606;51.992;4.198;2023-03-09T19:17:19;17.70;69.50
38854;DHT22;24606;51.992;4.198;2023-03-09T19:22:21;17.70;69.20
38854;DHT22;24606;51.992;4.198;2023-03-09T19:27:25;17.50;70.00
38854;DHT22;24606;51.992;4.198;2023-03-09T19:32:27;17.80;68.90
38854;DHT22;24606;51.992;4.198;2023-03-09T19:37:30;17.80;69.10
38854;DHT22;24606;51.992;4.198;2023-03-09T19:42:33;17.70;69.60
38854;DHT22;24606;51.992;4.198;2023-03-09T19:47:35;17.70;69.20
38854;DHT22;24606;51.992;4.198;2023-03-09T19:52:38;17.80;68.80
38854;DHT22;24606;51.992;4.198;2023-03-09T19:57:41;17.70;69.30
38854;DHT22;24606;51.992;4.198;2023-03-09T20:02:43;17.70;69.80
38854;DHT22;24606;51.992;4.198;2023-03-09T20:07:45;17.50;70.60
38854;DHT22;24606;51.992;4.198;2023-03-09T20:12:49;17.50;70.80
38854;DHT22;24606;51.992;4.198;2023-03-09T20:17:51;17.50;71.30
38854;DHT22;24606;51.992;4.198;2023-03-09T20:22:52;17.60;70.30
38854;DHT22;24606;51.992;4.198;2023-03-09T20:27:56;17.50;69.80
38854;DHT22;24606;51.992;4.198;2023-03-09T20:32:58;17.60;69.60
38854;DHT22;24606;51.992;4.198;2023-03-09T20:38:00;17.70;68.90
38854;DHT22;24606;51.992;4.198;2023-03-09T20:43:03;17.70;69.00
38854;DHT22;24606;51.992;4.198;2023-03-09T20:48:05;17.70;68.40
38854;DHT22;24606;51.992;4.198;2023-03-09T20:53:07;17.70;68.00
38854;DHT22;24606;51.992;4.198;2023-03-09T20:58:11;17.70;68.90
38854;DHT22;24606;51.992;4.198;2023-03-09T21:03:13;17.70;68.20
38854;DHT22;24606;51.992;4.198;2023-03-09T21:08:15;17.60;68.20
38854;DHT22;24606;51.992;4.198;2023-03-09T21:13:18;17.60;68.10
38854;DHT22;24606;51.992;4.198;2023-03-09T21:18:20;17.60;68.10
38854;DHT22;24606;51.992;4.198;2023-03-09T21:23:22;17.60;67.90
38854;DHT22;24606;51.992;4.198;2023-03-09T21:28:25;17.70;67.80
38854;DHT22;24606;51.992;4.198;2023-03-09T21:33:27;17.60;67.90
38854;DHT22;24606;51.992;4.198;2023-03-09T21:38:29;17.60;67.40
38854;DHT22;24606;51.992;4.198;2023-03-09T21:43:33;17.60;67.20
38854;DHT22;24606;51.992;4.198;2023-03-09T21:48:35;17.60;67.40
38854;DHT22;24606;51.992;4.198;2023-03-09T21:53:37;17.60;67.40
38854;DHT22;24606;51.992;4.198;2023-03-09T21:58:40;17.50;68.00
38854;DHT22;24606;51.992;4.198;2023-03-09T22:03:44;17.50;68.00
38854;DHT22;24606;51.992;4.198;2023-03-09T22:08:46;17.30;68.80
38854;DHT22;24606;51.992;4.198;2023-03-09T22:13:49;17.30;68.50
38854;DHT22;24606;51.992;4.198;2023-03-09T22:18:52;17.30;68.80
38854;DHT22;24606;51.992;4.198;2023-03-09T22:23:54;17.40;68.40
38854;DHT22;24606;51.992;4.198;2023-03-09T22:28:57;17.30;69.00
38854;DHT22;24606;51.992;4.198;2023-03-09T22:34:00;17.20;69.00
38854;DHT22;24606;51.992;4.198;2023-03-09T22:39:04;17.20;69.30
38854;DHT22;24606;51.992;4.198;2023-03-09T22:44:07;17.20;69.10
38854;DHT22;24606;51.992;4.198;2023-03-09T22:49:10;17.20;68.80
38854;DHT22;24606;51.992;4.198;2023-03-09T22:54:12;17.10;69.40
38854;DHT22;24606;51.992;4.198;2023-03-09T22:59:15;17.00;70.10
38854;DHT22;24606;51.992;4.198;2023-03-09T23:04:17;17.10;69.50
38854;DHT22;24606;51.992;4.198;2023-03-09T23:09:21;17.10;69.70
38854;DHT22;24606;51.992;4.198;2023-03-09T23:14:25;17.10;69.00
38854;DHT22;24606;51.992;4.198;2023-03-09T23:19:30;17.00;69.70
38854;DHT22;24606;51.992;4.198;2023-03-09T23:24:32;16.80;70.50
38854;DHT22;24606;51.992;4.198;2023-03-09T23:29:35;16.80;70.50
38854;DHT22;24606;51.992;4.198;2023-03-09T23:34:37;16.80;71.00
38854;DHT22;24606;51.992;4.198;2023-03-09T23:39:39;16.80;70.60
38854;DHT22;24606;51.992;4.198;2023-03-09T23:44:42;16.90;70.20
38854;DHT22;24606;51.992;4.198;2023-03-09T23:49:49;16.70;71.20
38854;DHT22;24606;51.992;4.198;2023-03-09T23:54:53;16.80;71.00
38854;DHT22;24606;51.992;4.198;2023-03-09T23:59:57;16.80;70.30
